• Join FlightAware (Why Join?)
  • Login
  • US Flag 
12:23AM EDT


 

Airport Tracker/Info


-or-


 

Live Flight TrackerFlight Track Log ✈ TAM3201 ✈ 11-May-2013 ✈ SBCF / CNF - SBSP / CGH

Flight Track Log - Related Links

Times and Time Zones

All times are in EDT time to prevent confusion due to time zone crossing. See the TAM3201 flight status page for this flight to view local times or setup timezone preferences in your user account.

Time Position Orientation Groundspeed Altitude Reporting Facility
EDT Latitude Longitude Course Direction KTS MPH feet Rate Location/Type
07:16AM -20.6368 -44.6274 212° Southwest  Level Estimated
07:17AM -20.6994 -44.6688 212° Southwest  Level Estimated
07:18AM -20.7620 -44.7103 212° Southwest  Level Estimated
07:19AM -20.8246 -44.7518 212° Southwest  Level Estimated
07:20AM -20.8872 -44.7934 212° Southwest  Level Estimated
07:21AM -20.9498 -44.8350 212° Southwest  Level Estimated
07:22AM -21.0123 -44.8766 212° Southwest  Level Estimated
07:23AM -21.0749 -44.9182 212° Southwest  Level Estimated
07:24AM -21.1374 -44.9599 212° Southwest  Level Estimated
07:25AM -21.1999 -45.0017 212° Southwest  Level Estimated
07:26AM -21.2624 -45.0434 212° Southwest  Level Estimated
07:27AM -21.3250 -45.0852 212° Southwest  Level Estimated
07:28AM -21.3875 -45.1270 212° Southwest  Level Estimated
07:29AM -21.4499 -45.1689 212° Southwest  Level Estimated
07:30AM -21.5124 -45.2108 212° Southwest  Level Estimated
07:31AM -21.5749 -45.2527 212° Southwest  Level Estimated
07:32AM -21.6374 -45.2947 212° Southwest  Level Estimated
07:33AM -21.6998 -45.3367 212° Southwest  Level Estimated
07:34AM -21.7622 -45.3787 212° Southwest  Level Estimated
07:35AM -21.8349 -45.4277 212° Southwest  Level Estimated
07:36AM -21.9075 -45.4767 212° Southwest  Level Estimated
07:37AM -21.9801 -45.5258 212° Southwest  Level Estimated
07:38AM -22.0527 -45.5749 212° Southwest  Level Estimated
07:39AM -22.1253 -45.6241 212° Southwest  Level Estimated
07:40AM -22.1978 -45.6733 212° Southwest  Level Estimated
07:41AM -22.2704 -45.7226 212° Southwest  Level Estimated
07:42AM -22.3429 -45.7719 212° Southwest  Level Estimated
07:43AM -22.4154 -45.8213 212° Southwest  Level Estimated
07:44AM -22.4879 -45.8707 212° Southwest  Level Estimated
07:45AM -22.5604 -45.9202 212° Southwest  Level Estimated
07:46AM -22.6329 -45.9697 212° Southwest  Level Estimated
07:47AM -22.7054 -46.0193 212° Southwest  Level Estimated
07:48AM -22.7778 -46.0690 212° Southwest  Level Estimated
07:49AM -22.8502 -46.1186 212° Southwest  Level Estimated
07:50AM -22.9226 -46.1684 212° Southwest  Level Estimated
07:51AM -22.9950 -46.2182 212° Southwest  Level Estimated
07:52AM -23.0674 -46.2680 212° Southwest  Level Estimated
07:53AM -23.1398 -46.3179 212° Southwest  Level Estimated
07:54AM -23.2121 -46.3679 212° Southwest  Level Estimated
07:55AM -23.2845 -46.4179 212° Southwest  Level Estimated
07:56AM -23.3568 -46.4679 212° Southwest  Level Estimated
07:57AM -23.4291 -46.5181 212° Southwest  Level Estimated
07:58AM -23.5014 -46.5682 212° Southwest  Level Estimated
07:59AM -23.5736 -46.6185 212° Southwest  Level Estimated
08:00AM -23.6267 -46.6554 213° Southwest  Level Estimated
08:01AM -23.6267 -46.6554 114° Southeast  Level Estimated
08:02AM -23.6267 -46.6554 114° Southeast  Level Estimated
08:03AM -23.6267 -46.6554 114° Southeast  Level Estimated
08:04AM -23.6267 -46.6554 114° Southeast  Level Estimated
08:05AM -23.6267 -46.6554 114° Southeast  Level Estimated
08:06AM -23.6267 -46.6554 114° Southeast  Level Estimated
08:07AM -23.6267 -46.6554 114° Southeast  Level Estimated
08:08AM -23.6267 -46.6554 114° Southeast  Level Estimated
08:09AM -23.6267 -46.6554 114° Southeast  Level Estimated
08:10AM -23.6267 -46.6554 114° Southeast  Level Estimated
08:11AM -23.6267 -46.6554 114° Southeast  Level Estimated